Time;durP1;ratioP1;P1;durP2;ratioP2;P2;SDS_P1;SDS_P2;PMS_P1;PMS_P2;Temp;Humidity;BMP_temperature;BMP_pressure;BME280_temperature;BME280_humidity;BME280_pressure;Samples;Min_cycle;Max_cycle;Signal;HPM_P1;HPM_P2
2023/02/19 00:01:49;;;;;;;71.90;39.17;;;;;;;7.14;55.46;99715.32;123452;1105;104176;-79
2023/02/19 00:04:22;;;;;;;71.37;39.50;;;;;;;7.07;56.93;99711.58;123316;1105;104385;-77
2023/02/19 00:06:54;;;;;;;75.62;44.70;;;;;;;6.97;57.92;99709.47;123699;1105;104669;-79
2023/02/19 00:09:25;;;;;;;68.80;38.55;;;;;;;6.88;57.25;99719.56;123532;1105;104417;-78
2023/02/19 00:11:57;;;;;;;58.33;32.07;;;;;;;6.83;56.99;99730.69;123485;1105;104377;-78
2023/02/19 00:14:28;;;;;;;54.03;28.47;;;;;;;6.81;57.07;99745.41;123499;1105;104320;-78
2023/02/19 00:16:59;;;;;;;50.87;26.43;;;;;;;6.77;57.31;99746.10;123479;1105;104281;-77
2023/02/19 00:19:30;;;;;;;49.30;25.40;;;;;;;6.71;58.32;99753.69;123629;1105;104309;-77
2023/02/19 00:22:02;;;;;;;48.63;26.87;;;;;;;6.69;57.79;99751.87;123593;1105;104291;-78
2023/02/19 00:24:33;;;;;;;53.70;27.35;;;;;;;6.71;57.65;99753.69;123411;1105;105047;-78
2023/02/19 00:27:04;;;;;;;51.33;26.63;;;;;;;6.78;57.81;99745.28;123514;1105;104194;-78
2023/02/19 00:29:35;;;;;;;40.83;21.73;;;;;;;6.83;57.96;99750.67;123486;1105;104244;-77
2023/02/19 00:32:07;;;;;;;46.87;24.27;;;;;;;6.88;57.95;99750.85;123622;1105;104280;-78
2023/02/19 00:34:39;;;;;;;44.73;23.77;;;;;;;6.90;58.24;99751.80;123644;1103;104352;-78
2023/02/19 00:37:10;;;;;;;46.90;24.50;;;;;;;6.94;57.96;99754.58;123500;1105;104326;-78
2023/02/19 00:39:41;;;;;;;47.43;25.83;;;;;;;6.96;58.16;99752.03;123530;1105;104294;-78
2023/02/19 00:42:13;;;;;;;55.90;30.03;;;;;;;6.96;58.46;99746.81;123483;1105;104412;-77
2023/02/19 00:44:44;;;;;;;58.43;30.67;;;;;;;6.95;58.66;99743.33;123469;1106;104303;-78
2023/02/19 00:47:16;;;;;;;57.23;30.33;;;;;;;6.95;58.61;99739.80;123608;1105;104489;-77
2023/02/19 00:49:47;;;;;;;55.73;29.63;;;;;;;6.95;58.56;99740.72;123742;1105;104352;-77
2023/02/19 00:52:19;;;;;;;62.60;32.83;;;;;;;6.96;58.96;99746.81;123634;1105;104394;-78
2023/02/19 00:54:50;;;;;;;58.15;30.40;;;;;;;6.97;59.17;99743.38;123526;1105;104323;-77
2023/02/19 00:57:21;;;;;;;55.53;30.50;;;;;;;6.99;58.92;99739.10;123682;1105;104247;-77
2023/02/19 00:59:52;;;;;;;50.23;29.07;;;;;;;6.95;60.27;99734.59;123753;1105;104300;-79
2023/02/19 01:02:25;;;;;;;49.53;25.70;;;;;;;6.84;60.06;99745.52;123859;1105;102077;-79
2023/02/19 01:04:57;;;;;;;46.17;25.10;;;;;;;6.80;59.39;99743.61;123398;1104;104357;-78
2023/02/19 01:07:28;;;;;;;41.53;22.70;;;;;;;6.77;60.01;99740.89;123353;1105;104278;-78
2023/02/19 01:09:59;;;;;;;41.65;22.80;;;;;;;6.73;59.80;99730.28;123427;1105;104326;-79
2023/02/19 01:12:30;;;;;;;46.67;23.43;;;;;;;6.72;60.13;99721.58;123436;1105;104357;-77
2023/02/19 01:15:02;;;;;;;40.47;22.47;;;;;;;6.74;59.93;99724.25;123378;1105;104319;-77
2023/02/19 01:17:35;;;;;;;38.87;21.63;;;;;;;6.69;60.59;99726.67;123440;1105;104267;-78
2023/02/19 01:20:07;;;;;;;43.80;24.70;;;;;;;6.64;60.55;99725.62;123372;1105;104294;-78
2023/02/19 01:22:38;;;;;;;40.90;22.07;;;;;;;6.65;60.63;99719.55;123543;1105;104341;-78
2023/02/19 01:25:10;;;;;;;43.00;22.20;;;;;;;6.66;61.34;99722.22;123438;1105;104657;-79
2023/02/19 01:27:42;;;;;;;42.70;22.47;;;;;;;6.68;60.78;99722.28;123534;1105;104315;-78
2023/02/19 01:30:13;;;;;;;43.30;22.80;;;;;;;6.70;60.96;99717.13;123764;1105;104405;-77
2023/02/19 01:32:45;;;;;;;43.67;23.47;;;;;;;6.71;61.15;99716.30;123511;1105;104245;-78
2023/02/19 01:35:16;;;;;;;40.13;23.23;;;;;;;6.71;61.23;99721.52;123746;1105;104357;-77
2023/02/19 01:37:47;;;;;;;38.67;22.10;;;;;;;6.72;61.17;99718.97;123904;1105;104466;-78
2023/02/19 01:40:19;;;;;;;38.13;21.10;;;;;;;6.71;61.51;99718.91;123597;1105;104383;-78
2023/02/19 01:42:52;;;;;;;42.30;22.10;;;;;;;6.71;61.45;99722.39;123783;1105;104290;-78
2023/02/19 01:45:28;;;;;;;41.77;22.03;;;;;;;6.74;61.90;99716.42;123758;1105;104421;-76
2023/02/19 01:48:12;;;;;;;41.83;21.57;;;;;;;6.75;61.58;99715.61;123771;1105;104453;-78
2023/02/19 01:50:47;;;;;;;42.80;23.65;;;;;;;6.74;61.95;99709.48;123777;1105;104265;-78
2023/02/19 01:53:22;;;;;;;39.23;22.87;;;;;;;6.76;62.28;99712.14;123720;1105;104402;-77
2023/02/19 01:55:56;;;;;;;41.55;22.85;;;;;;;6.74;62.02;99704.27;123796;1105;104258;-77
2023/02/19 01:58:30;;;;;;;42.30;23.70;;;;;;;6.75;62.45;99702.56;123788;1105;104210;-78
2023/02/19 02:01:03;;;;;;;42.17;23.02;;;;;;;6.75;62.23;99703.45;123641;1105;104261;-77
2023/02/19 02:03:37;;;;;;;45.30;23.83;;;;;;;6.75;62.51;99700.84;123595;1105;104188;-77
2023/02/19 02:06:09;;;;;;;;;;;;;;;6.72;64.22;99700.72;123418;1105;104184;-77
2023/02/19 02:11:30;;;;;;;40.60;22.57;;;;;;;6.68;63.14;99693.59;123646;1105;104284;-78
2023/02/19 02:14:03;;;;;;;41.40;23.47;;;;;;;6.68;63.06;99690.99;123565;1104;104341;-78
2023/02/19 02:16:43;;;;;;;40.03;21.70;;;;;;;6.69;63.24;99694.51;123545;1104;104242;-77
2023/02/19 02:19:30;;;;;;;35.30;20.57;;;;;;;6.68;63.61;99696.20;123672;1105;104217;-76
2023/02/19 02:22:11;;;;;;;38.97;21.43;;;;;;;6.64;63.50;99690.00;123533;1105;104297;-78
2023/02/19 02:25:25;;;;;;;38.27;21.53;;;;;;;6.64;63.35;99694.33;123680;1105;104239;-77
2023/02/19 02:28:12;;;;;;;39.60;21.27;;;;;;;6.60;63.65;99690.70;123494;1109;104322;-78
2023/02/19 02:30:47;;;;;;;36.37;20.00;;;;;;;6.60;63.99;99693.30;123760;1105;104314;-76
2023/02/19 02:33:27;;;;;;;38.67;20.63;;;;;;;6.60;63.86;99695.03;123705;1105;104294;-77
2023/02/19 02:36:03;;;;;;;34.50;20.20;;;;;;;6.61;63.86;99692.48;123439;1105;104290;-78
2023/02/19 02:38:40;;;;;;;38.17;21.27;;;;;;;6.62;64.33;99696.87;123516;1105;104296;-77
2023/02/19 02:41:13;;;;;;;35.73;19.70;;;;;;;6.60;64.21;99697.64;123417;1105;104274;-77
2023/02/19 02:43:44;;;;;;;35.37;19.17;;;;;;;6.54;64.62;99711.31;123488;1105;104382;-77
2023/02/19 02:46:22;;;;;;;35.60;19.73;;;;;;;6.44;64.56;99709.19;123337;1105;105689;-77
2023/02/19 02:48:57;;;;;;;44.83;25.53;;;;;;;6.33;64.63;99715.67;123410;1105;104345;-77
2023/02/19 02:51:36;;;;;;;53.25;29.65;;;;;;;6.19;64.66;99718.63;123368;1106;104297;-77
2023/02/19 02:57:13;;;;;;;43.93;26.33;;;;;;;5.86;67.11;99747.63;123816;1105;104246;-77
2023/02/19 02:59:49;;;;;;;48.30;28.03;;;;;;;5.70;67.81;99759.10;123754;1105;104242;-77
2023/02/19 03:02:24;;;;;;;47.70;27.80;;;;;;;5.58;67.27;99761.17;123448;1105;104284;-77
2023/02/19 03:07:58;;;;;;;47.70;28.00;;;;;;;5.43;66.49;99770.90;123268;1105;104347;-77
2023/02/19 03:10:34;;;;;;;45.30;25.73;;;;;;;5.40;66.78;99789.86;123259;1105;104364;-77
2023/02/19 03:21:51;;;;;;;46.23;27.60;;;;;;;5.14;69.46;99843.28;123303;1105;104270;-77
2023/02/19 03:27:19;;;;;;;44.77;25.50;;;;;;;5.08;69.11;99838.70;123140;1105;104206;-78
2023/02/19 03:29:55;;;;;;;39.73;23.07;;;;;;;5.07;69.89;99830.83;123153;1105;104329;-76
2023/02/19 03:32:27;;;;;;;;;;;;;;;5.07;69.52;99838.63;123196;1105;104351;-77
2023/02/19 03:35:06;;;;;;;40.60;22.70;;;;;;;5.09;70.78;99839.58;123150;1105;104274;-77
2023/02/19 03:37:43;;;;;;;38.07;22.50;;;;;;;5.08;71.17;99846.50;123153;1105;104344;-77
2023/02/19 03:40:15;;;;;;;38.57;22.00;;;;;;;5.07;70.41;99842.11;123143;1105;104480;-78
2023/02/19 03:42:57;;;;;;;36.83;21.20;;;;;;;5.12;72.31;99834.53;123221;1105;104409;-77
2023/02/19 03:45:38;;;;;;;33.63;18.37;;;;;;;5.11;72.07;99836.25;123225;1105;104227;-76
2023/02/19 03:48:24;;;;;;;33.13;17.70;;;;;;;5.13;73.12;99844.12;123441;1105;104240;-77
2023/02/19 03:51:05;;;;;;;31.73;16.43;;;;;;;5.15;72.25;99845.95;123411;1105;104396;-77
2023/02/19 03:53:47;;;;;;;32.07;16.47;;;;;;;5.17;74.07;99854.74;123405;1105;104472;-78
2023/02/19 03:56:25;;;;;;;28.47;15.13;;;;;;;5.20;74.18;99844.48;123315;1105;104401;-78
2023/02/19 03:59:03;;;;;;;30.33;16.07;;;;;;;5.19;72.93;99841.81;123337;1105;104421;-77
2023/02/19 04:01:41;;;;;;;29.53;16.03;;;;;;;5.19;73.00;99847.02;123431;1105;104322;-77
2023/02/19 04:04:19;;;;;;;27.70;14.97;;;;;;;5.16;72.76;99849.47;123273;1105;104405;-78
2023/02/19 04:06:56;;;;;;;28.53;14.97;;;;;;;5.17;73.24;99856.43;123178;1105;104536;-77
2023/02/19 04:09:33;;;;;;;29.80;15.23;;;;;;;5.14;73.69;99853.69;123207;1105;104364;-77
2023/02/19 04:12:10;;;;;;;32.73;16.83;;;;;;;5.11;74.63;99857.05;123238;1105;104328;-77
2023/02/19 04:14:46;;;;;;;28.80;14.53;;;;;;;5.10;75.47;99856.98;123221;1105;104322;-77
2023/02/19 04:17:24;;;;;;;29.50;15.57;;;;;;;5.12;74.45;99852.73;123304;1105;104400;-77
2023/02/19 04:19:59;;;;;;;32.07;17.07;;;;;;;5.12;74.87;99852.73;123155;1105;104801;-77
2023/02/19 04:22:31;;;;;;;29.23;16.03;;;;;;;5.08;74.49;99854.31;123116;1105;104242;-77
2023/02/19 04:25:02;;;;;;;27.67;14.70;;;;;;;5.07;74.32;99846.44;123034;1105;104733;-77
2023/02/19 04:27:35;;;;;;;28.40;15.60;;;;;;;5.09;75.47;99855.19;123207;1105;104297;-77
2023/02/19 04:30:11;;;;;;;26.77;14.50;;;;;;;5.04;75.21;99855.85;123123;1105;104371;-78
2023/02/19 04:32:42;;;;;;;30.10;16.10;;;;;;;4.99;74.77;99872.08;123199;1105;104339;-77
2023/02/19 04:35:13;;;;;;;30.53;16.80;;;;;;;4.94;74.78;99889.14;123124;1106;104264;-78
2023/02/19 04:37:45;;;;;;;33.00;16.73;;;;;;;4.91;75.47;99902.91;123108;1105;104337;-77
2023/02/19 04:40:16;;;;;;;31.50;16.10;;;;;;;4.89;75.56;99898.44;123189;1105;104332;-77
2023/02/19 04:42:47;;;;;;;29.90;16.33;;;;;;;4.88;75.99;99891.44;123076;1105;104290;-77
2023/02/19 04:45:19;;;;;;;29.10;15.47;;;;;;;4.91;76.97;99912.39;123133;1105;104685;-77
2023/02/19 04:47:50;;;;;;;29.37;15.37;;;;;;;4.94;76.83;99918.66;123207;1105;104663;-77
2023/02/19 04:50:22;;;;;;;27.17;15.10;;;;;;;4.97;76.49;99929.20;123138;1105;104332;-77
2023/02/19 04:52:53;;;;;;;25.70;13.60;;;;;;;5.02;77.05;99929.42;123255;1106;104188;-77
2023/02/19 04:55:24;;;;;;;23.73;12.87;;;;;;;5.07;78.00;99934.85;123239;1105;104361;-77
2023/02/19 04:57:56;;;;;;;28.93;13.73;;;;;;;5.13;78.20;99945.55;123254;1105;104268;-77
2023/02/19 05:00:28;;;;;;;26.07;13.10;;;;;;;5.17;77.32;99944.86;123274;1105;104267;-77
2023/02/19 05:02:59;;;;;;;24.30;12.73;;;;;;;5.21;77.38;99939.88;123130;1105;104364;-77
2023/02/19 05:05:31;;;;;;;26.97;12.83;;;;;;;5.25;78.05;99946.15;123024;1105;104294;-77
2023/02/19 05:08:02;;;;;;;22.90;11.53;;;;;;;5.28;77.24;99943.66;123174;1105;104424;-77
2023/02/19 05:10:33;;;;;;;21.67;10.93;;;;;;;5.33;77.99;99943.88;123222;1105;104322;-77
2023/02/19 05:13:04;;;;;;;22.10;11.30;;;;;;;5.38;77.65;99943.30;123260;1105;104305;-77
2023/02/19 05:15:36;;;;;;;24.53;11.73;;;;;;;5.47;78.91;99957.55;123278;1105;104351;-77
2023/02/19 05:18:08;;;;;;;21.50;10.60;;;;;;;5.52;79.12;99962.17;123397;1105;104197;-77
2023/02/19 05:20:39;;;;;;;21.93;11.20;;;;;;;5.56;78.56;99948.48;123284;1105;104278;-78
2023/02/19 05:23:10;;;;;;;22.80;11.97;;;;;;;5.60;78.57;99946.03;123284;1105;104370;-77
2023/02/19 05:25:42;;;;;;;24.03;11.63;;;;;;;5.64;79.24;99966.16;123392;1105;104383;-77
2023/02/19 05:28:19;;;;;;;24.00;11.27;;;;;;;5.67;79.96;99976.71;123319;1105;104256;-77
2023/02/19 05:30:52;;;;;;;22.27;11.03;;;;;;;5.67;78.98;99972.42;123164;1105;104309;-77
2023/02/19 05:33:25;;;;;;;21.93;11.23;;;;;;;5.67;79.26;99963.70;123112;1105;104411;-76
2023/02/19 05:35:57;;;;;;;20.07;9.87;;;;;;;5.68;79.11;99984.59;123033;1105;104753;-77
2023/02/19 05:38:28;;;;;;;21.70;11.30;;;;;;;5.69;79.57;99985.50;123134;1105;104329;-77
2023/02/19 05:41:09;;;;;;;21.47;10.40;;;;;;;5.71;78.91;99986.46;123227;1105;104255;-77
2023/02/19 05:43:41;;;;;;;20.50;9.53;;;;;;;5.74;78.07;99997.02;123354;1105;104242;-77
2023/02/19 05:46:14;;;;;;;20.57;10.07;;;;;;;5.80;78.62;99993.78;123262;1105;104317;-77
2023/02/19 05:48:45;;;;;;;19.70;9.27;;;;;;;5.87;78.64;100003.68;123312;1105;104242;-77
2023/02/19 05:51:19;;;;;;;17.00;8.50;;;;;;;5.93;78.84;100011.78;123259;1104;104226;-77
2023/02/19 05:53:51;;;;;;;19.73;8.67;;;;;;;6.02;78.53;100017.45;123238;1105;104456;-77
2023/02/19 05:56:33;;;;;;;17.63;7.90;;;;;;;6.10;78.69;100023.02;123332;1105;104669;-77
2023/02/19 05:59:07;;;;;;;17.97;8.50;;;;;;;6.18;78.74;100034.67;123371;1105;104358;-77
2023/02/19 06:01:38;;;;;;;18.70;8.50;;;;;;;6.24;80.02;100045.38;123035;1105;104414;-77
2023/02/19 06:04:11;;;;;;;17.60;8.97;;;;;;;6.28;79.83;100033.39;123063;1105;104370;-77
2023/02/19 06:06:43;;;;;;;18.40;8.73;;;;;;;6.30;79.90;100029.14;123187;1105;104261;-77
2023/02/19 06:09:14;;;;;;;17.57;7.73;;;;;;;6.34;80.35;100018.00;123320;1105;105862;-77
2023/02/19 06:11:45;;;;;;;14.77;6.97;;;;;;;6.39;79.37;100026.95;123158;1105;104383;-77
2023/02/19 06:14:17;;;;;;;19.40;7.77;;;;;;;6.49;80.17;100033.45;123189;1105;104469;-77
2023/02/19 06:16:48;;;;;;;16.00;7.93;;;;;;;6.55;80.69;100041.55;123113;1105;104344;-77
2023/02/19 06:19:19;;;;;;;15.83;7.67;;;;;;;6.60;80.56;100052.17;123208;1105;104293;-77
2023/02/19 06:21:52;;;;;;;17.27;7.60;;;;;;;6.60;80.19;100060.87;123095;1105;104270;-77
2023/02/19 06:24:24;;;;;;;15.60;7.10;;;;;;;6.62;80.91;100064.47;123083;1105;104341;-77
2023/02/19 06:26:55;;;;;;;14.87;7.37;;;;;;;6.65;81.16;100066.30;123185;1105;104325;-77
2023/02/19 06:29:26;;;;;;;15.37;7.07;;;;;;;6.71;81.01;100068.30;123119;1105;104293;-77
2023/02/19 06:31:58;;;;;;;16.47;7.13;;;;;;;6.74;81.25;100073.65;123129;1105;104338;-76
2023/02/19 06:34:29;;;;;;;13.27;6.40;;;;;;;6.74;81.43;100074.53;123197;1105;104370;-76
2023/02/19 06:37:01;;;;;;;14.23;6.83;;;;;;;6.75;80.21;100084.14;123277;1104;104367;-77
2023/02/19 06:39:32;;;;;;;15.90;7.63;;;;;;;6.76;80.58;100104.20;123440;1105;104299;-77
2023/02/19 06:42:03;;;;;;;18.27;7.80;;;;;;;6.81;80.98;100100.06;123353;1105;104338;-77
2023/02/19 06:44:35;;;;;;;15.23;7.57;;;;;;;6.85;80.18;100103.69;123323;1105;104245;-77
2023/02/19 06:47:06;;;;;;;15.57;7.20;;;;;;;6.89;80.30;100105.63;123401;1106;104319;-77
2023/02/19 06:49:38;;;;;;;12.30;6.50;;;;;;;6.98;80.47;100113.86;123234;1105;104358;-77
2023/02/19 06:52:10;;;;;;;15.60;7.20;;;;;;;7.08;81.12;100112.53;123247;1105;104358;-76
2023/02/19 06:54:41;;;;;;;14.30;6.83;;;;;;;7.12;80.68;100103.11;123117;1105;104296;-77
2023/02/19 06:57:12;;;;;;;14.60;7.27;;;;;;;7.13;80.76;100100.56;123072;1105;104349;-77
2023/02/19 06:59:43;;;;;;;15.23;7.10;;;;;;;7.12;80.97;100100.50;123032;1105;104255;-77
2023/02/19 07:02:15;;;;;;;15.97;7.20;;;;;;;7.10;80.80;100095.21;123142;1106;104220;-77
2023/02/19 07:04:46;;;;;;;13.50;6.83;;;;;;;7.13;81.05;100094.47;123143;1105;104338;-77
2023/02/19 07:07:17;;;;;;;11.67;6.20;;;;;;;7.15;80.68;100077.15;123099;1105;104325;-77
2023/02/19 07:09:48;;;;;;;14.03;6.80;;;;;;;7.25;81.03;100062.80;123166;1105;104237;-76
2023/02/19 07:12:19;;;;;;;13.07;6.40;;;;;;;7.35;80.78;100063.24;123363;1105;104290;-77
2023/02/19 07:14:51;;;;;;;14.73;6.03;;;;;;;7.45;81.34;100046.23;123035;1105;104255;-76
2023/02/19 07:17:22;;;;;;;13.07;6.47;;;;;;;7.54;80.70;100053.53;123023;1105;104351;-77
2023/02/19 07:19:53;;;;;;;10.33;6.07;;;;;;;7.62;80.96;100053.84;123127;1105;104274;-76
2023/02/19 07:22:24;;;;;;;10.77;5.80;;;;;;;7.71;81.33;100055.13;123193;1104;104335;-78
2023/02/19 07:24:55;;;;;;;10.63;5.40;;;;;;;7.75;81.88;100045.68;123383;1105;104261;-76
2023/02/19 07:27:27;;;;;;;8.27;5.20;;;;;;;7.83;81.94;100054.70;123246;1104;104252;-77
2023/02/19 07:29:59;;;;;;;11.43;5.40;;;;;;;7.88;81.27;100057.50;123261;1105;104456;-77
2023/02/19 07:32:30;;;;;;;7.70;5.00;;;;;;;7.91;81.28;100052.39;123348;1105;104261;-76
2023/02/19 07:35:02;;;;;;;11.70;5.20;;;;;;;7.94;80.88;100059.47;123159;1105;104299;-77
2023/02/19 07:37:33;;;;;;;8.03;4.60;;;;;;;7.97;81.58;100051.75;123297;1105;104325;-76
2023/02/19 07:40:06;;;;;;;9.53;4.00;;;;;;;8.00;81.24;100051.88;123209;1105;104402;-77
2023/02/19 07:42:37;;;;;;;7.50;3.90;;;;;;;8.01;81.12;100046.70;123498;1105;104309;-77
2023/02/19 07:45:10;;;;;;;9.97;4.70;;;;;;;8.05;81.53;100055.55;123321;1103;104191;-76
2023/02/19 07:47:42;;;;;;;8.33;3.80;;;;;;;8.09;80.78;100057.45;123229;1105;104277;-76
2023/02/19 07:50:13;;;;;;;7.10;3.43;;;;;;;8.09;80.59;100062.69;123198;1105;104312;-76
2023/02/19 07:52:44;;;;;;;9.57;3.87;;;;;;;8.14;80.64;100049.80;123099;1105;104293;-77
2023/02/19 07:55:15;;;;;;;7.50;3.67;;;;;;;8.21;80.54;100055.31;123179;1105;104332;-76
2023/02/19 07:57:47;;;;;;;6.70;3.23;;;;;;;8.24;79.28;100046.67;123236;1105;104316;-76
2023/02/19 08:00:18;;;;;;;6.57;3.30;;;;;;;8.30;79.94;100053.87;123118;1105;104264;-76
2023/02/19 08:03:02;;;;;;;5.50;3.43;;;;;;;8.34;79.21;100053.16;123155;1105;104309;-76
2023/02/19 08:05:37;;;;;;;6.80;3.20;;;;;;;8.40;79.59;100059.50;123151;1105;104240;-75
2023/02/19 08:08:10;;;;;;;5.67;3.00;;;;;;;8.42;78.62;100065.67;123059;1106;104354;-76
2023/02/19 08:13:32;;;;;;;4.45;3.05;;;;;;;8.55;77.85;100074.01;123023;1105;104418;-76
2023/02/19 08:16:16;;;;;;;6.07;2.90;;;;;;;8.62;77.57;100074.29;123210;1105;104197;-76
2023/02/19 08:18:48;;;;;;;4.70;2.35;;;;;;;8.67;77.10;100073.58;123228;1105;104428;-76
2023/02/19 08:21:19;;;;;;;5.13;2.33;;;;;;;8.69;75.78;100093.70;123166;1105;104419;-76
2023/02/19 08:23:51;;;;;;;3.07;1.80;;;;;;;8.74;75.39;100099.10;123017;1105;104300;-76
2023/02/19 08:26:22;;;;;;;3.27;1.80;;;;;;;8.76;74.04;100092.23;123146;1105;104220;-77
2023/02/19 08:28:53;;;;;;;4.73;1.97;;;;;;;8.82;72.88;100105.53;123164;1105;104223;-76
2023/02/19 08:31:25;;;;;;;4.10;2.07;;;;;;;8.86;73.45;100104.78;123114;1105;102253;-77
2023/02/19 08:33:57;;;;;;;4.20;2.07;;;;;;;8.90;71.80;100101.45;123157;1105;105643;-76
2023/02/19 08:36:28;;;;;;;4.13;2.27;;;;;;;8.95;71.72;100089.42;123082;1105;104210;-76
2023/02/19 08:38:59;;;;;;;2.47;1.83;;;;;;;8.99;72.20;100100.88;123232;1105;104306;-76
2023/02/19 08:41:31;;;;;;;3.17;2.20;;;;;;;9.02;71.00;100087.90;123172;1105;104178;-76
2023/02/19 08:44:02;;;;;;;4.37;2.00;;;;;;;9.04;69.90;100075.78;123261;1105;104205;-75
2023/02/19 08:46:33;;;;;;;5.90;2.20;;;;;;;9.07;69.72;100074.97;123218;1105;104326;-76
2023/02/19 08:49:05;;;;;;;3.43;2.03;;;;;;;9.10;67.89;100061.99;123196;1105;104290;-76
2023/02/19 08:51:36;;;;;;;2.90;2.03;;;;;;;9.13;69.31;100055.16;123262;1105;104210;-76
2023/02/19 08:54:07;;;;;;;4.70;2.00;;;;;;;9.20;68.83;100057.98;123216;1105;104185;-76
2023/02/19 08:56:38;;;;;;;4.80;1.87;;;;;;;9.23;66.15;100058.09;123260;1105;104859;-76
2023/02/19 08:59:10;;;;;;;2.50;1.97;;;;;;;9.28;67.34;100060.01;123213;1105;104383;-76
2023/02/19 09:01:41;;;;;;;4.67;1.90;;;;;;;9.31;67.08;100054.00;123197;1105;104271;-76
2023/02/19 09:04:13;;;;;;;5.67;2.30;;;;;;;9.28;67.42;100054.77;123244;1105;104276;-76
2023/02/19 09:06:44;;;;;;;2.53;1.77;;;;;;;9.29;66.77;100050.45;123194;1105;104290;-76
2023/02/19 09:09:16;;;;;;;4.23;1.90;;;;;;;9.28;66.50;100054.77;123110;1105;104210;-76
2023/02/19 09:11:47;;;;;;;4.40;1.87;;;;;;;9.31;64.93;100059.23;122999;1105;104389;-76
2023/02/19 09:14:18;;;;;;;5.23;2.17;;;;;;;9.42;67.06;100059.59;123035;1105;104290;-76
2023/02/19 09:16:49;;;;;;;2.40;2.07;;;;;;;9.50;66.88;100050.25;123204;1105;104268;-76
2023/02/19 09:19:21;;;;;;;6.07;2.10;;;;;;;9.59;66.32;100055.80;123040;1105;104371;-77
2023/02/19 09:21:52;;;;;;;4.20;1.87;;;;;;;9.72;65.36;100064.92;123184;1105;104387;-76
2023/02/19 09:24:23;;;;;;;3.23;1.80;;;;;;;9.79;66.18;100052.94;123173;1105;104396;-74
2023/02/19 09:26:55;;;;;;;4.17;1.97;;;;;;;9.87;64.28;100054.06;123139;1105;104682;-76
2023/02/19 09:29:29;;;;;;;5.17;2.40;;;;;;;9.93;64.99;100059.49;123097;1105;104376;-75
2023/02/19 09:32:01;;;;;;;3.85;2.02;;;;;;;10.00;64.92;100042.22;123169;1105;104290;-75
2023/02/19 09:34:33;;;;;;;3.33;2.27;;;;;;;10.11;65.80;100039.92;123054;1105;104477;-77
2023/02/19 09:37:04;;;;;;;8.23;3.20;;;;;;;10.21;65.20;100036.74;123050;1105;104419;-75
2023/02/19 09:39:36;;;;;;;5.93;2.50;;;;;;;10.28;63.71;100062.28;123131;1105;104341;-74
2023/02/19 09:42:17;;;;;;;5.53;2.40;;;;;;;10.29;64.24;100052.70;123153;1105;104258;-75
2023/02/19 09:44:50;;;;;;;2.80;1.73;;;;;;;10.33;64.32;100057.20;123053;1106;104381;-75
2023/02/19 09:47:24;;;;;;;5.90;2.50;;;;;;;10.41;63.66;100037.36;123254;1105;104268;-75
2023/02/19 09:49:58;;;;;;;3.73;2.23;;;;;;;10.49;63.39;100024.47;123105;1105;104255;-75
2023/02/19 09:52:36;;;;;;;3.90;2.17;;;;;;;10.50;62.68;100015.73;123026;1105;104275;-75
2023/02/19 09:55:16;;;;;;;5.10;2.57;;;;;;;10.49;62.13;100027.97;123177;1105;104272;-75
2023/02/19 09:57:50;;;;;;;3.87;2.17;;;;;;;10.55;62.88;100011.49;123121;1105;104708;-75
2023/02/19 10:00:26;;;;;;;4.72;2.20;;;;;;;10.61;62.53;99995.92;123165;1105;104296;-74
2023/02/19 10:03:04;;;;;;;5.05;2.10;;;;;;;10.66;62.01;99996.96;123162;1105;104392;-75
2023/02/19 10:05:36;;;;;;;3.90;2.07;;;;;;;10.72;62.27;99989.25;123135;1105;104379;-76
2023/02/19 10:08:12;;;;;;;5.80;2.20;;;;;;;10.79;62.58;99999.05;123104;1105;104181;-75
2023/02/19 10:10:45;;;;;;;4.70;2.07;;;;;;;10.87;62.73;99991.38;122992;1105;104287;-75
2023/02/19 10:13:21;;;;;;;2.75;2.10;;;;;;;10.95;61.96;99991.58;123030;1105;104404;-76
2023/02/19 10:15:56;;;;;;;4.33;2.03;;;;;;;11.04;62.96;100006.70;122979;1105;104281;-76
2023/02/19 10:18:29;;;;;;;5.60;2.20;;;;;;;11.14;63.40;100008.69;123115;1105;104264;-75
2023/02/19 10:21:02;;;;;;;3.52;2.15;;;;;;;11.20;62.32;100003.59;123116;1105;104373;-75
2023/02/19 10:23:34;;;;;;;4.00;2.07;;;;;;;11.21;62.10;100001.88;123109;1106;104286;-75
2023/02/19 10:26:05;;;;;;;2.77;2.07;;;;;;;11.28;62.37;99995.91;123155;1105;104345;-75
2023/02/19 10:28:37;;;;;;;4.00;2.00;;;;;;;11.27;61.56;99999.41;123007;1105;104491;-75
2023/02/19 10:31:18;;;;;;;7.63;2.20;;;;;;;11.27;62.00;100010.79;123127;1105;104182;-75
2023/02/19 10:33:55;;;;;;;6.05;2.30;;;;;;;11.37;61.97;100006.64;123040;1104;104360;-76
2023/02/19 10:36:32;;;;;;;5.13;2.30;;;;;;;11.44;61.10;100018.21;123096;1105;104206;-75
2023/02/19 10:39:25;;;;;;;6.03;2.60;;;;;;;11.55;61.50;100011.47;123081;1105;104482;-75
2023/02/19 10:41:57;;;;;;;5.20;2.17;;;;;;;11.80;62.07;100014.67;123006;1105;104434;-75
2023/02/19 10:44:33;;;;;;;5.73;2.50;;;;;;;12.01;62.07;100019.54;123035;1105;104287;-75
2023/02/19 10:47:04;;;;;;;5.60;2.70;;;;;;;12.04;61.03;100022.23;123026;1105;104360;-76
2023/02/19 10:49:38;;;;;;;6.00;2.90;;;;;;;12.10;61.40;100013.61;122974;1105;104283;-74
2023/02/19 10:52:17;;;;;;;8.17;2.70;;;;;;;12.11;60.32;100018.02;123087;1105;104302;-74
2023/02/19 10:54:52;;;;;;;6.80;2.50;;;;;;;12.08;60.18;100021.47;123124;1105;104418;-75
2023/02/19 10:57:33;;;;;;;4.83;2.20;;;;;;;12.07;60.30;100017.05;123080;1105;104377;-75
2023/02/19 11:00:23;;;;;;;5.40;2.40;;;;;;;12.11;60.98;100007.50;122967;1105;104395;-75
2023/02/19 11:03:18;;;;;;;4.53;2.43;;;;;;;12.17;60.66;100010.23;123167;1105;104666;-75
2023/02/19 11:06:07;;;;;;;8.63;2.70;;;;;;;12.20;60.74;99995.42;123063;1105;104302;-74
2023/02/19 11:08:49;;;;;;;4.77;2.50;;;;;;;12.25;60.63;100002.51;122990;1105;107116;-74
2023/02/19 11:11:31;;;;;;;7.20;2.43;;;;;;;12.21;60.20;99999.81;122934;1105;104283;-75
2023/02/19 11:14:11;;;;;;;8.70;2.73;;;;;;;12.18;59.49;99999.75;123218;1105;104828;-76
2023/02/19 11:16:46;;;;;;;8.40;2.67;;;;;;;12.15;59.91;99994.42;123050;1105;104210;-75
2023/02/19 11:19:28;;;;;;;9.60;2.57;;;;;;;12.12;60.03;99988.22;123184;1105;104290;-75
2023/02/19 11:22:00;;;;;;;4.13;2.20;;;;;;;12.17;59.96;99987.47;123002;1105;104241;-75
2023/02/19 11:24:36;;;;;;;6.13;2.50;;;;;;;12.20;60.27;99984.91;123101;1105;104284;-76
2023/02/19 11:27:17;;;;;;;8.40;2.43;;;;;;;12.28;59.94;99989.42;123053;1105;104379;-76
2023/02/19 11:29:49;;;;;;;5.00;2.47;;;;;;;12.40;60.18;99973.88;123000;1105;104290;-75
2023/02/19 11:32:29;;;;;;;6.67;2.30;;;;;;;12.48;60.07;99979.30;122929;1105;104284;-75
2023/02/19 11:35:24;;;;;;;6.50;2.30;;;;;;;12.53;60.16;99981.17;122991;1105;104345;-75
2023/02/19 11:38:00;;;;;;;5.28;2.30;;;;;;;12.50;59.99;99973.22;123039;1105;104268;-75
2023/02/19 11:40:44;;;;;;;6.87;2.50;;;;;;;12.50;59.57;99977.61;123134;1105;104341;-74
2023/02/19 11:43:40;;;;;;;4.73;2.40;;;;;;;12.48;59.90;99979.30;123181;1105;104289;-74
2023/02/19 11:46:23;;;;;;;5.45;2.40;;;;;;;12.44;59.58;99978.36;123059;1105;104188;-76
2023/02/19 11:49:06;;;;;;;9.00;2.50;;;;;;;12.38;59.88;99989.64;123004;1105;104304;-74
2023/02/19 11:51:48;;;;;;;10.35;2.90;;;;;;;12.25;59.63;99984.09;123074;1105;104348;-75
2023/02/19 11:54:38;;;;;;;5.93;2.70;;;;;;;12.07;59.36;99987.24;123080;1105;104290;-74
2023/02/19 11:57:19;;;;;;;6.40;3.00;;;;;;;11.93;59.74;99981.69;123067;1105;104290;-75
2023/02/19 11:59:59;;;;;;;6.23;2.73;;;;;;;11.85;60.07;99968.34;122972;1105;117958;-74
2023/02/19 12:02:57;;;;;;;7.23;2.80;;;;;;;11.78;59.84;99972.58;123009;1105;104277;-75
2023/02/19 12:05:45;;;;;;;6.30;2.73;;;;;;;11.69;60.13;99967.11;123066;1105;104334;-74
2023/02/19 12:08:41;;;;;;;4.93;2.60;;;;;;;11.63;60.00;99964.34;123122;1105;104345;-74